createdAt,value
2018-09-30T00:00:01.095Z,94944.68
2018-09-30T00:02:29.808Z,94950.03
2018-09-30T00:04:58.482Z,94949.90
2018-09-30T00:07:27.292Z,94947.22
2018-09-30T00:09:56.117Z,94949.58
2018-09-30T00:12:24.888Z,94949.63
2018-09-30T00:14:53.584Z,94948.91
2018-09-30T00:17:22.287Z,94955.17
2018-09-30T00:19:51.075Z,94949.71
2018-09-30T00:22:19.852Z,94949.34
2018-09-30T00:25:55.111Z,94960.20
2018-09-30T00:28:23.815Z,94960.96
2018-09-30T00:30:52.535Z,94956.76
2018-09-30T00:33:21.172Z,94961.37
2018-09-30T00:35:49.908Z,94952.63
2018-09-30T00:38:18.646Z,94958.06
2018-09-30T00:40:47.365Z,94955.75
2018-09-30T00:43:16.061Z,94954.58
2018-09-30T00:45:44.801Z,94957.52
2018-09-30T00:48:13.495Z,94969.39
2018-09-30T00:50:42.271Z,94971.20
2018-09-30T00:53:10.920Z,94970.65
2018-09-30T00:55:39.642Z,94966.30
2018-09-30T00:58:08.312Z,94978.92
2018-09-30T01:00:37.089Z,94978.31
2018-09-30T01:03:05.777Z,94981.98
2018-09-30T01:05:34.810Z,94987.55
2018-09-30T01:08:03.518Z,94985.64
2018-09-30T01:10:32.385Z,94987.33
2018-09-30T01:13:01.036Z,94988.02
2018-09-30T01:15:29.699Z,94984.83
2018-09-30T01:17:58.352Z,94989.20
2018-09-30T01:20:27.002Z,94984.83
2018-09-30T01:22:55.642Z,94984.38
2018-09-30T01:25:24.332Z,94988.44
2018-09-30T01:27:53.033Z,94988.78
2018-09-30T01:30:21.864Z,94983.45
2018-09-30T01:32:50.530Z,94984.80
2018-09-30T01:35:19.427Z,94991.01
2018-09-30T01:37:48.161Z,94992.02
2018-09-30T01:40:16.909Z,94992.87
2018-09-30T01:42:45.586Z,94987.67
2018-09-30T01:45:14.268Z,94986.70
2018-09-30T01:47:42.943Z,94989.16
2018-09-30T01:50:11.677Z,94995.05
2018-09-30T01:52:50.491Z,94996.51
2018-09-30T01:55:19.287Z,94989.86
2018-09-30T01:57:47.992Z,94991.16
2018-09-30T02:00:17.256Z,94996.37
2018-09-30T02:02:46.490Z,94996.02
2018-09-30T02:05:15.801Z,95005.27
2018-09-30T02:07:44.940Z,95003.84
2018-09-30T02:10:13.788Z,95000.44
2018-09-30T02:12:42.479Z,95003.36
2018-09-30T02:15:11.264Z,95006.80
2018-09-30T02:17:41.019Z,95005.32
2018-09-30T02:20:09.834Z,95002.42
2018-09-30T02:22:38.595Z,95000.77
2018-09-30T02:25:07.361Z,94995.08
2018-09-30T02:27:36.200Z,94996.70
2018-09-30T02:30:06.292Z,95001.60
2018-09-30T02:32:35.032Z,94997.21
2018-09-30T02:35:03.867Z,94995.56
2018-09-30T02:37:32.599Z,94993.77
2018-09-30T02:40:01.290Z,94993.48
2018-09-30T02:42:29.978Z,94997.86
2018-09-30T02:44:58.761Z,95002.09
2018-09-30T02:47:27.505Z,94997.20
2018-09-30T02:49:56.280Z,95006.15
2018-09-30T02:52:25.044Z,95007.62
2018-09-30T02:54:53.946Z,95013.28
2018-09-30T02:57:22.595Z,95009.56
2018-09-30T02:59:51.292Z,95011.67
2018-09-30T03:02:20.093Z,95018.31
2018-09-30T03:04:48.777Z,95016.66
2018-09-30T03:07:22.780Z,95021.52
2018-09-30T03:09:51.475Z,95029.81
2018-09-30T03:12:20.200Z,95026.05
2018-09-30T03:14:48.880Z,95030.25
2018-09-30T03:17:17.516Z,95022.45
2018-09-30T03:19:46.243Z,95031.34
2018-09-30T03:22:14.962Z,95038.66
2018-09-30T03:24:43.688Z,95035.40
2018-09-30T03:27:12.408Z,95029.23
2018-09-30T03:29:41.281Z,95024.83
2018-09-30T03:32:10.009Z,95029.53
2018-09-30T03:34:38.795Z,95031.16
2018-09-30T03:37:07.527Z,95037.81
2018-09-30T03:39:36.330Z,95037.02
2018-09-30T03:42:04.926Z,95039.11
2018-09-30T03:44:33.660Z,95044.81
2018-09-30T03:47:02.421Z,95041.03
2018-09-30T03:49:31.121Z,95047.34
2018-09-30T03:51:59.850Z,95045.87
2018-09-30T03:54:28.576Z,95046.99
2018-09-30T03:57:00.756Z,95028.71
2018-09-30T03:59:35.801Z,95053.24
2018-09-30T04:02:09.361Z,95046.08
2018-09-30T04:04:38.166Z,95053.68
2018-09-30T04:07:07.462Z,95054.31
2018-09-30T04:09:36.265Z,95054.92
2018-09-30T04:12:05.036Z,95059.05
2018-09-30T04:14:33.772Z,95059.05
2018-09-30T04:17:02.571Z,95062.59
2018-09-30T04:19:31.187Z,95063.17
2018-09-30T04:21:59.880Z,95063.81
2018-09-30T04:24:28.627Z,95064.63
2018-09-30T04:26:57.284Z,95064.73
2018-09-30T04:29:25.996Z,95067.34
2018-09-30T04:31:54.649Z,95073.36
2018-09-30T04:34:23.383Z,95076.91
2018-09-30T04:36:52.310Z,95073.12
2018-09-30T04:39:21.007Z,95076.55
2018-09-30T04:41:49.715Z,95079.33
2018-09-30T04:44:18.376Z,95086.93
2018-09-30T04:46:47.048Z,95092.06
2018-09-30T04:49:15.940Z,95086.25
2018-09-30T04:51:44.576Z,95092.92
2018-09-30T04:54:13.351Z,95092.90
2018-09-30T04:56:42.097Z,95097.59
2018-09-30T04:59:11.392Z,95088.85
2018-09-30T05:01:40.147Z,95087.38
2018-09-30T05:04:08.948Z,95085.41
2018-09-30T05:06:37.683Z,95087.81
2018-09-30T05:09:07.533Z,95087.23
2018-09-30T05:11:36.209Z,95088.69
2018-09-30T05:14:04.876Z,95087.23
2018-09-30T05:16:33.600Z,95089.83
2018-09-30T05:19:02.244Z,95087.75
2018-09-30T05:21:30.944Z,95089.59
2018-09-30T05:23:59.684Z,95093.80
2018-09-30T05:26:28.392Z,95096.25
2018-09-30T05:28:57.159Z,95100.66
2018-09-30T05:31:26.960Z,95102.35
2018-09-30T05:33:55.706Z,95104.01
2018-09-30T05:36:24.476Z,95107.44
2018-09-30T05:38:53.195Z,95112.53
2018-09-30T05:41:21.880Z,95109.95
2018-09-30T05:43:50.587Z,95108.69
2018-09-30T05:46:19.394Z,95108.09
2018-09-30T05:48:48.167Z,95110.03
2018-09-30T05:51:16.862Z,95112.77
2018-09-30T05:53:45.629Z,95113.45
2018-09-30T05:56:14.276Z,95111.54
2018-09-30T05:58:43.015Z,95106.38
2018-09-30T06:01:11.733Z,95111.27
2018-09-30T06:03:40.421Z,95113.59
2018-09-30T06:06:09.083Z,95113.09
2018-09-30T06:08:37.932Z,95106.77
2018-09-30T06:11:06.602Z,95112.47
2018-09-30T06:13:35.308Z,95120.97
2018-09-30T06:16:04.111Z,95118.87
2018-09-30T06:18:32.726Z,95120.67
2018-09-30T06:21:01.395Z,95122.00
2018-09-30T06:23:30.029Z,95126.41
2018-09-30T06:25:58.737Z,95114.87
2018-09-30T06:28:27.477Z,95125.43
2018-09-30T06:30:56.148Z,95122.03
2018-09-30T06:33:24.884Z,95131.63
2018-09-30T06:35:53.616Z,95139.59
2018-09-30T06:38:22.260Z,95134.88
2018-09-30T06:40:50.918Z,95137.16
2018-09-30T06:43:19.742Z,95139.44
2018-09-30T06:45:48.597Z,95137.80
2018-09-30T06:48:17.332Z,95142.05
2018-09-30T06:50:46.023Z,95141.88
2018-09-30T06:53:14.728Z,95138.14
2018-09-30T06:55:43.419Z,95139.92
2018-09-30T06:58:12.080Z,95138.30
2018-09-30T07:00:40.858Z,95144.80
2018-09-30T07:03:09.921Z,95143.84
2018-09-30T07:05:38.568Z,95144.47
2018-09-30T07:08:07.243Z,95146.12
2018-09-30T07:10:36.000Z,95149.68
2018-09-30T07:13:04.860Z,95137.14
2018-09-30T07:15:33.511Z,95142.80
2018-09-30T07:18:02.236Z,95139.52
2018-09-30T07:20:31.024Z,95139.20
2018-09-30T07:22:59.785Z,95143.41
2018-09-30T07:25:28.444Z,95144.20
2018-09-30T07:27:57.250Z,95148.25
2018-09-30T07:30:26.101Z,95147.56
2018-09-30T07:32:54.756Z,95155.61
2018-09-30T07:35:23.489Z,95158.44
2018-09-30T07:37:52.207Z,95158.02
2018-09-30T07:40:21.001Z,95160.88
2018-09-30T07:42:49.802Z,95158.09
2018-09-30T07:45:19.432Z,95160.11
2018-09-30T07:47:48.100Z,95156.20
2018-09-30T07:50:16.782Z,95163.44
2018-09-30T07:52:45.427Z,95164.84
2018-09-30T07:55:14.143Z,95168.61
2018-09-30T07:57:42.890Z,95168.28
2018-09-30T08:00:14.250Z,95172.80
2018-09-30T08:02:42.902Z,95170.95
2018-09-30T08:05:11.693Z,95174.39
2018-09-30T08:07:40.428Z,95172.53
2018-09-30T08:10:09.148Z,95172.80
2018-09-30T08:12:37.807Z,95171.94
2018-09-30T08:15:06.536Z,95173.89
2018-09-30T08:17:35.257Z,95167.52
2018-09-30T08:20:04.088Z,95163.92
2018-09-30T08:22:32.758Z,95166.34
2018-09-30T08:25:01.451Z,95168.97
2018-09-30T08:27:30.100Z,95165.48
2018-09-30T08:29:58.958Z,95172.55
2018-09-30T08:32:27.723Z,95173.17
2018-09-30T08:34:56.400Z,95166.22
2018-09-30T08:37:30.352Z,95164.97
2018-09-30T08:39:59.056Z,95161.81
2018-09-30T08:42:27.732Z,95166.84
2018-09-30T08:44:56.455Z,95170.11
2018-09-30T08:47:25.254Z,95164.36
2018-09-30T08:49:53.961Z,95159.00
2018-09-30T08:52:22.633Z,95160.64
2018-09-30T08:54:51.422Z,95162.20
2018-09-30T08:57:20.290Z,95159.69
2018-09-30T08:59:49.040Z,95163.91
2018-09-30T09:02:17.722Z,95158.77
2018-09-30T09:04:46.377Z,95159.27
2018-09-30T09:07:15.044Z,95151.29
2018-09-30T09:09:44.888Z,95152.52
2018-09-30T09:12:13.574Z,95145.36
2018-09-30T09:14:42.253Z,95143.11
2018-09-30T09:17:10.996Z,95137.50
2018-09-30T09:19:40.102Z,95135.88
2018-09-30T09:22:08.862Z,95142.73
2018-09-30T09:24:37.696Z,95136.45
2018-09-30T09:27:06.365Z,95135.60
2018-09-30T09:29:35.116Z,95135.11
2018-09-30T09:32:03.869Z,95132.89
2018-09-30T09:35:36.579Z,95121.92
2018-09-30T09:38:05.327Z,95124.23
2018-09-30T09:40:34.078Z,95123.63
2018-09-30T09:43:02.810Z,95125.78
2018-09-30T09:45:31.864Z,95123.64
2018-09-30T09:48:00.595Z,95132.16
2018-09-30T09:50:29.350Z,95127.39
2018-09-30T09:52:58.024Z,95115.73
2018-09-30T09:55:26.704Z,95119.26
2018-09-30T09:57:55.562Z,95118.83
2018-09-30T10:00:29.472Z,95121.29
2018-09-30T10:02:58.237Z,95117.24
2018-09-30T10:05:27.152Z,95115.06
2018-09-30T10:07:55.908Z,95116.97
2018-09-30T10:10:24.593Z,95119.62
2018-09-30T10:12:53.260Z,95117.61
2018-09-30T10:15:22.465Z,95118.04
2018-09-30T10:17:51.216Z,95113.87
2018-09-30T10:20:19.930Z,95114.43
2018-09-30T10:22:49.520Z,95114.38
2018-09-30T10:25:18.340Z,95111.05
2018-09-30T10:27:47.129Z,95110.30
2018-09-30T10:30:17.292Z,95110.19
2018-09-30T10:32:46.013Z,95112.36
2018-09-30T10:35:14.778Z,95111.25
2018-09-30T10:37:43.445Z,95105.37
2018-09-30T10:40:12.409Z,95105.41
2018-09-30T10:42:41.265Z,95104.70
2018-09-30T10:45:10.044Z,95109.27
2018-09-30T10:47:38.688Z,95101.65
2018-09-30T10:50:07.516Z,95107.55
2018-09-30T10:52:36.215Z,95098.63
2018-09-30T10:55:04.993Z,95098.81
2018-09-30T10:57:33.737Z,95096.32
2018-09-30T11:00:03.660Z,95092.83
2018-09-30T11:02:32.416Z,95086.79
2018-09-30T11:05:01.058Z,95089.79
2018-09-30T11:07:29.780Z,95085.67
2018-09-30T11:09:58.591Z,95087.78
2018-09-30T11:12:27.403Z,95080.73
2018-09-30T11:14:56.127Z,95081.16
2018-09-30T11:17:24.817Z,95078.55
2018-09-30T11:19:53.813Z,95078.32
2018-09-30T11:22:22.558Z,95078.03
2018-09-30T11:24:51.245Z,95074.33
2018-09-30T11:27:19.975Z,95076.09
2018-09-30T11:29:48.727Z,95068.43
2018-09-30T11:32:17.392Z,95066.66
2018-09-30T11:34:46.132Z,95061.80
2018-09-30T11:37:14.865Z,95057.84
2018-09-30T11:39:43.549Z,95060.27
2018-09-30T11:42:12.244Z,95062.87
2018-09-30T11:44:40.928Z,95065.81
2018-09-30T11:47:09.612Z,95064.95
2018-09-30T11:49:38.357Z,95062.02
2018-09-30T11:52:07.008Z,95064.41
2018-09-30T11:54:35.753Z,95056.44
2018-09-30T11:57:04.456Z,95064.67
2018-09-30T11:59:33.140Z,95062.31
2018-09-30T12:02:01.836Z,95060.63
2018-09-30T12:04:30.701Z,95059.59
2018-09-30T12:06:59.362Z,95049.94
2018-09-30T12:09:28.075Z,95048.23
2018-09-30T12:11:56.760Z,95046.91
2018-09-30T12:14:25.671Z,95045.66
2018-09-30T12:16:54.360Z,95045.48
2018-09-30T12:19:23.066Z,95041.65
2018-09-30T12:21:52.008Z,95038.98
2018-09-30T12:24:20.748Z,95039.53
2018-09-30T12:26:49.452Z,95042.35
2018-09-30T12:29:18.166Z,95033.59
2018-09-30T12:31:47.015Z,95029.61
2018-09-30T12:34:15.736Z,95027.41
2018-09-30T12:36:44.394Z,95022.46
2018-09-30T12:39:13.211Z,95020.06
2018-09-30T12:41:41.973Z,95018.23
2018-09-30T12:44:10.650Z,95016.19
2018-09-30T12:46:39.391Z,95014.14
2018-09-30T12:49:08.071Z,95012.52
2018-09-30T12:51:36.770Z,95011.07
2018-09-30T12:54:05.559Z,95009.39
2018-09-30T12:56:34.400Z,95004.41
2018-09-30T12:59:03.142Z,95002.13
2018-09-30T13:01:31.882Z,95004.44
2018-09-30T13:04:00.534Z,95003.84
2018-09-30T13:06:29.274Z,95001.25
2018-09-30T13:08:58.034Z,94996.30
2018-09-30T13:11:26.821Z,94996.66
2018-09-30T13:13:55.546Z,94998.97
2018-09-30T13:16:24.261Z,94996.95
2018-09-30T13:18:52.928Z,94996.20
2018-09-30T13:21:21.670Z,94989.57
2018-09-30T13:23:50.366Z,94985.18
2018-09-30T13:26:19.108Z,94979.77
2018-09-30T13:28:47.887Z,94981.25
2018-09-30T13:31:16.581Z,94984.50
2018-09-30T13:33:45.328Z,94986.47
2018-09-30T13:36:14.097Z,94982.55
2018-09-30T13:38:42.801Z,94981.53
2018-09-30T13:41:11.582Z,94982.41
2018-09-30T13:43:40.254Z,94977.17
2018-09-30T13:46:08.988Z,94978.68
2018-09-30T13:48:37.829Z,94976.82
2018-09-30T13:51:06.115Z,94973.61
2018-09-30T13:53:34.843Z,94977.50
2018-09-30T13:56:03.634Z,94983.17
2018-09-30T13:58:32.321Z,94982.42
2018-09-30T14:01:01.170Z,94980.13
2018-09-30T14:03:29.929Z,94977.25
2018-09-30T14:05:58.640Z,94977.38
2018-09-30T14:08:27.468Z,94972.59
2018-09-30T14:10:56.227Z,94976.13
2018-09-30T14:13:24.976Z,94983.80
2018-09-30T14:15:53.804Z,94981.96
2018-09-30T14:18:22.492Z,94982.88
2018-09-30T14:20:51.210Z,94983.73
2018-09-30T14:23:19.889Z,94985.64
2018-09-30T14:25:48.706Z,94985.33
2018-09-30T14:28:17.505Z,94978.50
2018-09-30T14:30:46.167Z,94982.59
2018-09-30T14:33:14.853Z,94983.30
2018-09-30T14:35:43.590Z,94980.00
2018-09-30T14:38:12.275Z,94982.03
2018-09-30T14:40:40.936Z,94973.45
2018-09-30T14:43:09.687Z,94976.25
2018-09-30T14:45:38.368Z,94974.96
2018-09-30T14:48:07.261Z,94978.67
2018-09-30T14:50:36.027Z,94979.16
2018-09-30T14:53:04.820Z,94982.28
2018-09-30T14:55:33.581Z,94984.77
2018-09-30T14:58:02.295Z,94989.42
2018-09-30T15:00:31.266Z,94992.96
2018-09-30T15:02:59.929Z,94987.48
2018-09-30T15:05:28.666Z,94983.96
2018-09-30T15:07:57.370Z,94989.30
2018-09-30T15:10:26.197Z,94993.47
2018-09-30T15:12:54.860Z,94987.86
2018-09-30T15:15:23.611Z,94989.89
2018-09-30T15:17:52.341Z,94989.19
2018-09-30T15:20:21.081Z,94989.31
2018-09-30T15:22:49.723Z,94982.33
2018-09-30T15:25:18.549Z,94983.48
2018-09-30T15:27:47.352Z,94983.53
2018-09-30T15:30:16.036Z,94984.75
2018-09-30T15:32:44.741Z,94979.03
2018-09-30T15:35:13.415Z,94980.27
2018-09-30T15:37:42.079Z,94982.60
2018-09-30T15:40:10.790Z,94977.49
2018-09-30T15:42:39.583Z,94976.31
2018-09-30T15:45:08.337Z,94975.16
2018-09-30T15:47:37.096Z,94977.16
2018-09-30T15:50:06.343Z,94982.25
2018-09-30T15:52:35.095Z,94981.53
2018-09-30T15:55:03.845Z,94985.34
2018-09-30T15:57:32.567Z,94980.31
2018-09-30T16:00:01.619Z,94985.64
2018-09-30T16:02:30.280Z,94985.23
2018-09-30T16:04:59.244Z,94984.61
2018-09-30T16:07:28.096Z,94984.26
2018-09-30T16:09:56.888Z,94983.09
2018-09-30T16:12:25.618Z,94980.50
2018-09-30T16:14:54.634Z,94978.90
2018-09-30T16:17:23.367Z,94980.41
2018-09-30T16:19:52.120Z,94972.13
2018-09-30T16:22:20.943Z,94974.41
2018-09-30T16:24:49.718Z,94973.53
2018-09-30T16:27:18.495Z,94974.66
2018-09-30T16:29:47.264Z,94972.38
2018-09-30T16:32:15.985Z,94970.91
2018-09-30T16:34:44.914Z,94973.98
2018-09-30T16:37:14.285Z,94974.97
2018-09-30T16:39:43.033Z,94978.09
2018-09-30T16:42:12.146Z,94976.97
2018-09-30T16:44:40.927Z,94980.40
2018-09-30T16:47:10.145Z,94979.44
2018-09-30T16:49:39.040Z,94981.40
2018-09-30T16:52:13.624Z,94984.30
2018-09-30T16:54:42.544Z,94981.88
2018-09-30T16:57:11.368Z,94984.78
2018-09-30T16:59:40.246Z,94987.36
2018-09-30T17:02:09.746Z,94984.30
2018-09-30T17:04:38.478Z,94978.39
2018-09-30T17:07:07.157Z,94982.66
2018-09-30T17:09:35.929Z,94990.16
2018-09-30T17:12:04.686Z,94986.73
2018-09-30T17:14:33.465Z,94988.86
2018-09-30T17:17:02.332Z,94994.06
2018-09-30T17:19:31.020Z,94994.39
2018-09-30T17:21:59.800Z,94994.39
2018-09-30T17:24:28.577Z,94991.94
2018-09-30T17:26:57.361Z,94992.77
2018-09-30T17:29:26.060Z,94995.39
2018-09-30T17:31:54.883Z,94993.86
2018-09-30T17:34:23.585Z,94995.55
2018-09-30T17:36:52.343Z,94997.82
2018-09-30T17:39:21.060Z,94997.52
2018-09-30T17:41:49.873Z,95001.59
